Portada
METAR-TAF:

METAR-TAF

Aeropuertos :

Aeropuerto de Clermont-Ferrand/Auvergne

Clermont-Ferrand, Francia

latitud: 45-47N, longitud: 003-10E, altitud: 332 m

Observación

El informe se hizo hace 39 minutos, a las 19:00 UTC
Viento 2 kt del oeste-noroeste
Temperatura 3°C
Humedad 93%
Presión 1013 hPa
Visibilidad: 4800 m
neblina

METAR: LFLC 211900Z AUTO 29002KT 4800 BR NSC 03/02 Q1013 BECMG 0800 FG VV///

Hora: 20:39 (19:39 UTC)

Pronóstico

El informe se hizo hace 41 minutos, a las 18:58 UTC
Pronóstico válido del 21 a las 18 UTC al 22 a las 15 UTC
Viento 3 kt del noreste
Visibilidad: 3000 m
neblina
Temporalmente
del 21 a las 21 UTC al 22 a las 10 UTC
Visibilidad: 0500 m
niebla
Evolucionando progresivamente
del 22 a las 10 UTC al 22 a las 12 UTC
Visibilidad 10 km o más
sin nubes por debajo de 1500 m y sin presencia de cumulonimbus.

TAF: LFLC 211858Z 2118/2215 04003KT 3000 BR NSC TEMPO 2121/2210 0500 FG VV/// BECMG 2210/2212 CAVOK

Observaciones y pronósticos meteorológicos de más de 4000 aeropuertos (mensajes METAR y TAF).

Los puntos amarillos y rojos representan las estaciones disponibles.

Ponga el ratón en el punto deseado para ver el nombre de la estación.

Haga clic para ver las observaciones y los pronósticos meteorológicos.

Para cambiar el mapa : haga clic en los botones verdes con una cruz de color negro para hacer un zoom, en el botón verde con un guión para alejar o en las flechas verdes para mapas adyacentes.


METAR-TAF: